sensor_id;sensor_type;location;lat;lon;timestamp;pressure;altitude;pressure_sealevel;temperature;humidity
56142;BME280;42018;48.588;10.836;2022-07-24T00:02:18;97184.44;;;21.96;57.50
56142;BME280;42018;48.588;10.836;2022-07-24T00:05:03;97190.56;;;22.05;57.23
56142;BME280;42018;48.588;10.836;2022-07-24T00:07:49;97191.81;;;22.08;57.42
56142;BME280;42018;48.588;10.836;2022-07-24T00:10:34;97190.56;;;22.05;57.66
56142;BME280;42018;48.588;10.836;2022-07-24T00:13:20;97199.00;;;22.04;58.05
56142;BME280;42018;48.588;10.836;2022-07-24T00:16:06;97197.59;;;21.97;58.23
56142;BME280;42018;48.588;10.836;2022-07-24T00:18:51;97198.34;;;22.07;57.51
56142;BME280;42018;48.588;10.836;2022-07-24T00:21:37;97194.03;;;22.14;57.34
56142;BME280;42018;48.588;10.836;2022-07-24T00:24:22;97188.31;;;21.86;58.91
56142;BME280;42018;48.588;10.836;2022-07-24T00:27:07;97188.19;;;21.83;58.20
56142;BME280;42018;48.588;10.836;2022-07-24T00:29:53;97192.38;;;21.33;59.87
56142;BME280;42018;48.588;10.836;2022-07-24T00:32:38;97194.34;;;21.15;60.75
56142;BME280;42018;48.588;10.836;2022-07-24T00:35:24;97185.75;;;21.22;60.18
56142;BME280;42018;48.588;10.836;2022-07-24T00:38:10;97180.44;;;21.04;60.73
56142;BME280;42018;48.588;10.836;2022-07-24T00:40:55;97183.31;;;20.99;61.10
56142;BME280;42018;48.588;10.836;2022-07-24T00:46:48;97177.28;;;21.02;60.88
56142;BME280;42018;48.588;10.836;2022-07-24T00:49:33;97175.66;;;21.10;60.55
56142;BME280;42018;48.588;10.836;2022-07-24T00:52:19;97174.88;;;21.10;60.55
56142;BME280;42018;48.588;10.836;2022-07-24T00:55:04;97181.22;;;21.14;60.79
56142;BME280;42018;48.588;10.836;2022-07-24T00:57:50;97186.13;;;21.12;60.80
56142;BME280;42018;48.588;10.836;2022-07-24T01:00:36;97182.63;;;21.11;61.09
56142;BME280;42018;48.588;10.836;2022-07-24T01:03:21;97180.44;;;21.04;61.69
56142;BME280;42018;48.588;10.836;2022-07-24T01:06:07;97186.44;;;21.10;61.12
56142;BME280;42018;48.588;10.836;2022-07-24T01:08:53;97185.13;;;21.16;60.79
56142;BME280;42018;48.588;10.836;2022-07-24T01:11:39;97185.44;;;21.23;60.60
56142;BME280;42018;48.588;10.836;2022-07-24T01:14:25;97187.25;;;21.02;61.17
56142;BME280;42018;48.588;10.836;2022-07-24T01:17:11;97187.34;;;20.67;62.27
56142;BME280;42018;48.588;10.836;2022-07-24T01:19:57;97185.41;;;20.76;61.91
56142;BME280;42018;48.588;10.836;2022-07-24T01:22:42;97174.94;;;20.84;61.66
56142;BME280;42018;48.588;10.836;2022-07-24T01:25:28;97180.34;;;20.84;62.00
56142;BME280;42018;48.588;10.836;2022-07-24T01:28:14;97180.81;;;20.77;62.10
56142;BME280;42018;48.588;10.836;2022-07-24T01:30:59;97182.44;;;20.69;62.60
56142;BME280;42018;48.588;10.836;2022-07-24T01:33:45;97179.25;;;20.76;62.34
56142;BME280;42018;48.588;10.836;2022-07-24T01:36:30;97178.91;;;20.86;61.66
56142;BME280;42018;48.588;10.836;2022-07-24T01:39:16;97174.94;;;20.92;61.51
56142;BME280;42018;48.588;10.836;2022-07-24T01:42:02;97182.72;;;20.85;62.24
56142;BME280;42018;48.588;10.836;2022-07-24T01:44:47;97187.09;;;20.98;61.53
56142;BME280;42018;48.588;10.836;2022-07-24T01:47:32;97174.75;;;20.97;62.09
56142;BME280;42018;48.588;10.836;2022-07-24T01:50:18;97179.34;;;20.88;62.42
56142;BME280;42018;48.588;10.836;2022-07-24T01:53:04;97180.94;;;20.98;61.88
56142;BME280;42018;48.588;10.836;2022-07-24T01:55:50;97180.44;;;21.04;61.73
56142;BME280;42018;48.588;10.836;2022-07-24T01:58:36;97169.00;;;21.08;61.68
56142;BME280;42018;48.588;10.836;2022-07-24T02:01:25;97182.16;;;21.09;61.88
56142;BME280;42018;48.588;10.836;2022-07-24T02:04:10;97175.81;;;21.14;62.08
56142;BME280;42018;48.588;10.836;2022-07-24T02:06:56;97175.81;;;21.14;62.63
56142;BME280;42018;48.588;10.836;2022-07-24T02:09:41;97181.00;;;21.19;62.21
56142;BME280;42018;48.588;10.836;2022-07-24T02:12:26;97178.81;;;21.21;62.12
56142;BME280;42018;48.588;10.836;2022-07-24T02:15:12;97172.09;;;21.27;62.15
56142;BME280;42018;48.588;10.836;2022-07-24T02:17:59;97187.78;;;21.34;61.57
56142;BME280;42018;48.588;10.836;2022-07-24T02:20:45;97188.72;;;21.38;61.05
56142;BME280;42018;48.588;10.836;2022-07-24T02:23:30;97191.50;;;21.12;62.87
56142;BME280;42018;48.588;10.836;2022-07-24T02:26:17;97193.50;;;21.32;62.20
56142;BME280;42018;48.588;10.836;2022-07-24T02:29:03;97190.72;;;21.11;62.82
56142;BME280;42018;48.588;10.836;2022-07-24T02:31:48;97180.72;;;21.20;63.41
56142;BME280;42018;48.588;10.836;2022-07-24T02:34:33;97183.69;;;21.36;63.11
56142;BME280;42018;48.588;10.836;2022-07-24T02:37:19;97179.09;;;21.28;63.15
56142;BME280;42018;48.588;10.836;2022-07-24T02:40:06;97182.13;;;21.18;63.14
56142;BME280;42018;48.588;10.836;2022-07-24T02:42:52;97184.22;;;21.12;63.17
56142;BME280;42018;48.588;10.836;2022-07-24T02:45:37;97186.84;;;21.29;62.27
56142;BME280;42018;48.588;10.836;2022-07-24T02:48:23;97189.09;;;21.27;62.91
56142;BME280;42018;48.588;10.836;2022-07-24T02:51:08;97179.22;;;21.32;62.67
56142;BME280;42018;48.588;10.836;2022-07-24T02:53:55;97185.91;;;21.25;63.13
56142;BME280;42018;48.588;10.836;2022-07-24T02:56:40;97180.81;;;21.33;62.19
56142;BME280;42018;48.588;10.836;2022-07-24T02:59:26;97186.25;;;21.24;63.41
56142;BME280;42018;48.588;10.836;2022-07-24T03:02:11;97183.84;;;21.31;62.58
56142;BME280;42018;48.588;10.836;2022-07-24T03:04:56;97196.53;;;21.22;63.01
56142;BME280;42018;48.588;10.836;2022-07-24T03:07:42;97192.28;;;21.21;62.94
56142;BME280;42018;48.588;10.836;2022-07-24T03:10:28;97184.19;;;21.21;63.55
56142;BME280;42018;48.588;10.836;2022-07-24T03:13:13;97187.53;;;21.18;63.25
56142;BME280;42018;48.588;10.836;2022-07-24T03:15:59;97189.78;;;21.07;63.63
56142;BME280;42018;48.588;10.836;2022-07-24T03:18:44;97183.97;;;20.96;64.31
56142;BME280;42018;48.588;10.836;2022-07-24T03:21:30;97173.47;;;20.95;64.34
56142;BME280;42018;48.588;10.836;2022-07-24T03:24:16;97182.09;;;20.79;64.96
56142;BME280;42018;48.588;10.836;2022-07-24T03:27:01;97177.84;;;20.61;65.62
56142;BME280;42018;48.588;10.836;2022-07-24T03:29:47;97177.53;;;20.71;64.62
56142;BME280;42018;48.588;10.836;2022-07-24T03:32:33;97167.06;;;20.78;64.54
56142;BME280;42018;48.588;10.836;2022-07-24T03:35:18;97178.59;;;20.79;64.50
56142;BME280;42018;48.588;10.836;2022-07-24T03:38:03;97174.31;;;20.87;63.83
56142;BME280;42018;48.588;10.836;2022-07-24T03:40:49;97172.25;;;20.84;63.90
56142;BME280;42018;48.588;10.836;2022-07-24T03:43:34;97175.63;;;20.63;65.18
56142;BME280;42018;48.588;10.836;2022-07-24T03:46:20;97181.16;;;20.41;66.22
56142;BME280;42018;48.588;10.836;2022-07-24T03:49:05;97179.44;;;20.36;65.72
56142;BME280;42018;48.588;10.836;2022-07-24T03:51:50;97189.25;;;20.49;65.07
56142;BME280;42018;48.588;10.836;2022-07-24T03:54:36;97187.34;;;20.41;65.55
56142;BME280;42018;48.588;10.836;2022-07-24T03:57:22;97189.72;;;20.51;65.13
56142;BME280;42018;48.588;10.836;2022-07-24T04:00:08;97188.78;;;20.65;64.36
56142;BME280;42018;48.588;10.836;2022-07-24T04:02:54;97189.41;;;20.62;64.49
56142;BME280;42018;48.588;10.836;2022-07-24T04:05:39;97197.97;;;20.64;63.86
56142;BME280;42018;48.588;10.836;2022-07-24T04:08:25;97195.91;;;20.61;64.61
56142;BME280;42018;48.588;10.836;2022-07-24T04:11:10;97192.88;;;20.45;64.67
56142;BME280;42018;48.588;10.836;2022-07-24T04:13:55;97197.19;;;20.54;64.10
56142;BME280;42018;48.588;10.836;2022-07-24T04:16:41;97200.63;;;20.38;64.22
56142;BME280;42018;48.588;10.836;2022-07-24T04:19:26;97200.78;;;20.41;64.73
56142;BME280;42018;48.588;10.836;2022-07-24T04:22:12;97202.06;;;20.52;64.42
56142;BME280;42018;48.588;10.836;2022-07-24T04:24:57;97201.78;;;20.54;64.27
56142;BME280;42018;48.588;10.836;2022-07-24T04:27:42;97202.38;;;20.60;65.05
56142;BME280;42018;48.588;10.836;2022-07-24T04:30:32;97202.50;;;20.80;64.22
56142;BME280;42018;48.588;10.836;2022-07-24T04:33:17;97203.25;;;20.98;64.13
56142;BME280;42018;48.588;10.836;2022-07-24T04:36:04;97199.44;;;21.08;64.01
56142;BME280;42018;48.588;10.836;2022-07-24T04:38:50;97213.19;;;21.24;63.33
56142;BME280;42018;48.588;10.836;2022-07-24T04:41:35;97205.84;;;21.33;63.23
56142;BME280;42018;48.588;10.836;2022-07-24T04:44:20;97205.38;;;21.40;62.43
56142;BME280;42018;48.588;10.836;2022-07-24T04:47:06;97203.75;;;21.47;62.78
56142;BME280;42018;48.588;10.836;2022-07-24T04:49:51;97203.19;;;21.63;62.50
56142;BME280;42018;48.588;10.836;2022-07-24T04:52:37;97204.72;;;21.72;61.66
56142;BME280;42018;48.588;10.836;2022-07-24T04:55:22;97204.22;;;21.79;62.31
56142;BME280;42018;48.588;10.836;2022-07-24T04:58:07;97204.88;;;21.76;62.66
56142;BME280;42018;48.588;10.836;2022-07-24T05:00:53;97204.44;;;21.74;62.80
56142;BME280;42018;48.588;10.836;2022-07-24T05:03:38;97202.00;;;21.81;62.32
56142;BME280;42018;48.588;10.836;2022-07-24T05:06:25;97209.69;;;21.91;62.21
56142;BME280;42018;48.588;10.836;2022-07-24T05:09:10;97214.69;;;21.81;62.51
56142;BME280;42018;48.588;10.836;2022-07-24T05:11:56;97219.75;;;21.82;62.57
56142;BME280;42018;48.588;10.836;2022-07-24T05:14:41;97216.03;;;21.95;62.35
56142;BME280;42018;48.588;10.836;2022-07-24T05:17:26;97218.84;;;21.78;63.60
56142;BME280;42018;48.588;10.836;2022-07-24T05:20:12;97216.47;;;21.97;63.18
56142;BME280;42018;48.588;10.836;2022-07-24T05:22:57;97214.78;;;22.14;62.61
56142;BME280;42018;48.588;10.836;2022-07-24T05:25:43;97212.06;;;22.22;62.15
56142;BME280;42018;48.588;10.836;2022-07-24T05:28:29;97207.44;;;22.44;61.54
56142;BME280;42018;48.588;10.836;2022-07-24T05:31:14;97215.09;;;22.42;61.85
56142;BME280;42018;48.588;10.836;2022-07-24T05:34:00;97211.25;;;22.43;61.91
56142;BME280;42018;48.588;10.836;2022-07-24T05:36:49;97215.38;;;22.61;61.74
56142;BME280;42018;48.588;10.836;2022-07-24T05:39:35;97211.41;;;22.80;61.19
56142;BME280;42018;48.588;10.836;2022-07-24T05:42:21;97214.66;;;23.06;60.68
56142;BME280;42018;48.588;10.836;2022-07-24T05:45:06;97215.34;;;23.03;60.96
56142;BME280;42018;48.588;10.836;2022-07-24T05:47:52;97220.44;;;23.29;59.62
56142;BME280;42018;48.588;10.836;2022-07-24T05:50:37;97218.53;;;23.42;59.63
56142;BME280;42018;48.588;10.836;2022-07-24T05:53:23;97221.56;;;23.40;59.33
56142;BME280;42018;48.588;10.836;2022-07-24T05:56:08;97222.94;;;23.47;59.54
56142;BME280;42018;48.588;10.836;2022-07-24T05:58:53;97218.44;;;23.63;60.16
56142;BME280;42018;48.588;10.836;2022-07-24T06:01:39;97220.63;;;23.70;60.65
56142;BME280;42018;48.588;10.836;2022-07-24T06:04:24;97226.47;;;23.84;60.44
56142;BME280;42018;48.588;10.836;2022-07-24T06:07:10;97222.28;;;23.86;60.42
56142;BME280;42018;48.588;10.836;2022-07-24T06:09:55;97226.44;;;23.96;59.95
56142;BME280;42018;48.588;10.836;2022-07-24T06:12:41;97232.06;;;24.03;60.22
56142;BME280;42018;48.588;10.836;2022-07-24T06:15:27;97225.16;;;24.30;59.53
56142;BME280;42018;48.588;10.836;2022-07-24T06:18:12;97216.78;;;24.35;59.26
56142;BME280;42018;48.588;10.836;2022-07-24T06:20:58;97220.69;;;24.50;58.45
56142;BME280;42018;48.588;10.836;2022-07-24T06:23:43;97215.53;;;24.73;57.74
56142;BME280;42018;48.588;10.836;2022-07-24T06:26:28;97219.75;;;24.87;57.29
56142;BME280;42018;48.588;10.836;2022-07-24T06:29:14;97215.84;;;25.00;56.83
56142;BME280;42018;48.588;10.836;2022-07-24T06:31:59;97216.69;;;25.16;55.42
56142;BME280;42018;48.588;10.836;2022-07-24T06:34:45;97219.81;;;25.18;55.53
56142;BME280;42018;48.588;10.836;2022-07-24T06:37:30;97221.41;;;25.19;55.23
56142;BME280;42018;48.588;10.836;2022-07-24T06:40:17;97218.72;;;25.19;55.72
56142;BME280;42018;48.588;10.836;2022-07-24T06:43:03;97220.13;;;25.45;54.91
56142;BME280;42018;48.588;10.836;2022-07-24T06:45:48;97219.50;;;25.51;53.98
56142;BME280;42018;48.588;10.836;2022-07-24T06:48:34;97213.78;;;25.56;54.05
56142;BME280;42018;48.588;10.836;2022-07-24T06:51:19;97216.19;;;25.58;53.52
56142;BME280;42018;48.588;10.836;2022-07-24T06:54:04;97220.09;;;25.76;54.15
56142;BME280;42018;48.588;10.836;2022-07-24T06:56:50;97214.03;;;25.99;54.18
56142;BME280;42018;48.588;10.836;2022-07-24T06:59:35;97216.03;;;26.21;53.38
56142;BME280;42018;48.588;10.836;2022-07-24T07:02:21;97218.19;;;26.12;53.57
56142;BME280;42018;48.588;10.836;2022-07-24T07:05:08;97212.63;;;26.24;53.28
56142;BME280;42018;48.588;10.836;2022-07-24T07:07:53;97215.59;;;26.00;52.88
56142;BME280;42018;48.588;10.836;2022-07-24T07:10:39;97214.69;;;26.12;53.61
56142;BME280;42018;48.588;10.836;2022-07-24T07:13:24;97218.66;;;26.53;52.31
56142;BME280;42018;48.588;10.836;2022-07-24T07:16:09;97215.78;;;26.46;50.98
56142;BME280;42018;48.588;10.836;2022-07-24T07:18:55;97219.31;;;26.46;51.50
56142;BME280;42018;48.588;10.836;2022-07-24T07:21:40;97208.78;;;26.84;51.29
56142;BME280;42018;48.588;10.836;2022-07-24T07:24:26;97214.25;;;27.07;50.66
56142;BME280;42018;48.588;10.836;2022-07-24T07:27:11;97224.97;;;26.77;50.15
56142;BME280;42018;48.588;10.836;2022-07-24T07:29:56;97219.75;;;27.10;50.04
56142;BME280;42018;48.588;10.836;2022-07-24T07:32:42;97223.31;;;27.34;49.77
56142;BME280;42018;48.588;10.836;2022-07-24T07:35:27;97214.59;;;27.48;49.40
56142;BME280;42018;48.588;10.836;2022-07-24T07:38:13;97219.97;;;27.44;49.07
56142;BME280;42018;48.588;10.836;2022-07-24T07:40:58;97221.66;;;27.52;48.95
56142;BME280;42018;48.588;10.836;2022-07-24T07:43:43;97224.09;;;27.57;48.67
56142;BME280;42018;48.588;10.836;2022-07-24T07:46:29;97230.72;;;27.83;47.89
56142;BME280;42018;48.588;10.836;2022-07-24T07:49:15;97223.94;;;28.00;47.24
56142;BME280;42018;48.588;10.836;2022-07-24T07:52:01;97224.53;;;28.12;47.45
56142;BME280;42018;48.588;10.836;2022-07-24T07:54:46;97227.09;;;28.02;46.79
56142;BME280;42018;48.588;10.836;2022-07-24T07:57:32;97232.28;;;27.84;46.68
56142;BME280;42018;48.588;10.836;2022-07-24T08:00:17;97223.31;;;28.10;46.61
56142;BME280;42018;48.588;10.836;2022-07-24T08:03:04;97231.63;;;28.47;46.63
56142;BME280;42018;48.588;10.836;2022-07-24T08:05:50;97225.44;;;28.50;43.79
56142;BME280;42018;48.588;10.836;2022-07-24T08:08:35;97224.25;;;28.48;44.82
56142;BME280;42018;48.588;10.836;2022-07-24T08:11:20;97224.53;;;28.39;43.52
56142;BME280;42018;48.588;10.836;2022-07-24T08:14:06;97223.22;;;28.03;42.54
56142;BME280;42018;48.588;10.836;2022-07-24T08:16:51;97215.28;;;28.21;42.98
56142;BME280;42018;48.588;10.836;2022-07-24T08:19:37;97219.91;;;28.16;43.38
56142;BME280;42018;48.588;10.836;2022-07-24T08:22:23;97211.19;;;28.04;42.82
56142;BME280;42018;48.588;10.836;2022-07-24T08:25:08;97207.06;;;28.17;42.49
56142;BME280;42018;48.588;10.836;2022-07-24T08:27:54;97207.09;;;28.47;42.33
56142;BME280;42018;48.588;10.836;2022-07-24T08:30:39;97196.00;;;28.67;41.95
56142;BME280;42018;48.588;10.836;2022-07-24T08:33:25;97198.63;;;28.90;42.41
56142;BME280;42018;48.588;10.836;2022-07-24T08:36:10;97189.47;;;29.08;41.12
56142;BME280;42018;48.588;10.836;2022-07-24T08:38:55;97197.38;;;29.24;40.74
56142;BME280;42018;48.588;10.836;2022-07-24T08:41:42;97206.91;;;28.67;40.96
56142;BME280;42018;48.588;10.836;2022-07-24T08:44:27;97195.81;;;29.23;41.09
56142;BME280;42018;48.588;10.836;2022-07-24T08:47:15;97190.47;;;29.34;39.15
56142;BME280;42018;48.588;10.836;2022-07-24T08:50:01;97196.47;;;29.54;39.85
56142;BME280;42018;48.588;10.836;2022-07-24T08:52:49;97195.94;;;29.82;38.72
56142;BME280;42018;48.588;10.836;2022-07-24T08:55:35;97200.69;;;29.92;38.61
56142;BME280;42018;48.588;10.836;2022-07-24T08:58:21;97198.91;;;30.25;38.56
56142;BME280;42018;48.588;10.836;2022-07-24T09:01:07;97203.66;;;30.35;37.94
56142;BME280;42018;48.588;10.836;2022-07-24T09:03:52;97201.56;;;30.14;37.77
56142;BME280;42018;48.588;10.836;2022-07-24T09:06:55;97195.88;;;30.44;38.81
56142;BME280;42018;48.588;10.836;2022-07-24T09:09:42;97193.28;;;30.80;36.30
56142;BME280;42018;48.588;10.836;2022-07-24T09:12:33;97202.19;;;30.70;36.13
56142;BME280;42018;48.588;10.836;2022-07-24T09:15:22;97195.91;;;30.51;35.32
56142;BME280;42018;48.588;10.836;2022-07-24T09:18:09;97188.16;;;30.68;36.14
56142;BME280;42018;48.588;10.836;2022-07-24T09:21:14;97199.38;;;30.45;36.08
56142;BME280;42018;48.588;10.836;2022-07-24T09:23:59;97190.81;;;30.46;37.67
56142;BME280;42018;48.588;10.836;2022-07-24T09:26:50;97185.84;;;30.84;36.81
56142;BME280;42018;48.588;10.836;2022-07-24T09:29:36;97185.50;;;31.04;37.07
56142;BME280;42018;48.588;10.836;2022-07-24T09:32:24;97190.22;;;31.14;35.07
56142;BME280;42018;48.588;10.836;2022-07-24T09:35:10;97183.97;;;31.10;35.66
56142;BME280;42018;48.588;10.836;2022-07-24T09:37:57;97189.81;;;31.19;35.80
56142;BME280;42018;48.588;10.836;2022-07-24T09:40:51;97184.31;;;30.94;35.75
56142;BME280;42018;48.588;10.836;2022-07-24T09:43:37;97184.34;;;31.05;33.81
56142;BME280;42018;48.588;10.836;2022-07-24T09:46:24;97192.56;;;31.19;35.58
56142;BME280;42018;48.588;10.836;2022-07-24T09:49:18;97188.59;;;30.84;35.28
56142;BME280;42018;48.588;10.836;2022-07-24T09:54:50;97172.63;;;31.68;35.21
56142;BME280;42018;48.588;10.836;2022-07-24T09:57:37;97166.34;;;31.89;34.03
56142;BME280;42018;48.588;10.836;2022-07-24T10:00:22;97166.72;;;31.95;34.74
56142;BME280;42018;48.588;10.836;2022-07-24T10:03:13;97156.09;;;32.11;33.74
56142;BME280;42018;48.588;10.836;2022-07-24T10:06:05;97155.78;;;31.81;31.63
56142;BME280;42018;48.588;10.836;2022-07-24T10:08:51;97160.84;;;31.79;33.27
56142;BME280;42018;48.588;10.836;2022-07-24T10:11:38;97155.34;;;31.86;33.89
56142;BME280;42018;48.588;10.836;2022-07-24T10:14:29;97144.34;;;32.14;32.50
56142;BME280;42018;48.588;10.836;2022-07-24T10:17:16;97148.25;;;32.17;31.99
56142;BME280;42018;48.588;10.836;2022-07-24T10:20:03;97149.84;;;32.04;33.81
56142;BME280;42018;48.588;10.836;2022-07-24T10:23:02;97147.75;;;32.43;32.79
56142;BME280;42018;48.588;10.836;2022-07-24T10:28:49;97151.13;;;31.56;33.30
56142;BME280;42018;48.588;10.836;2022-07-24T10:31:44;97154.59;;;31.85;33.77
56142;BME280;42018;48.588;10.836;2022-07-24T10:34:41;97146.31;;;32.14;32.05
56142;BME280;42018;48.588;10.836;2022-07-24T10:37:39;97144.13;;;32.61;31.30
56142;BME280;42018;48.588;10.836;2022-07-24T10:40:48;97137.09;;;32.60;31.25
56142;BME280;42018;48.588;10.836;2022-07-24T10:43:34;97136.16;;;32.00;31.01
56142;BME280;42018;48.588;10.836;2022-07-24T10:46:19;97141.94;;;32.31;31.30
56142;BME280;42018;48.588;10.836;2022-07-24T10:49:05;97139.34;;;31.81;30.95
56142;BME280;42018;48.588;10.836;2022-07-24T10:51:59;97135.00;;;31.94;31.69
56142;BME280;42018;48.588;10.836;2022-07-24T10:54:45;97134.28;;;31.47;30.66
56142;BME280;42018;48.588;10.836;2022-07-24T11:00:49;97137.81;;;31.40;33.04
56142;BME280;42018;48.588;10.836;2022-07-24T11:03:34;97125.94;;;32.11;31.31
56142;BME280;42018;48.588;10.836;2022-07-24T11:06:38;97135.44;;;31.64;30.22
56142;BME280;42018;48.588;10.836;2022-07-24T11:09:25;97128.03;;;31.04;31.60
56142;BME280;42018;48.588;10.836;2022-07-24T11:12:11;97127.25;;;31.14;31.27
56142;BME280;42018;48.588;10.836;2022-07-24T11:15:01;97121.00;;;30.92;31.69
56142;BME280;42018;48.588;10.836;2022-07-24T11:18:14;97133.44;;;30.64;32.27
56142;BME280;42018;48.588;10.836;2022-07-24T11:21:00;97129.06;;;30.35;32.38
56142;BME280;42018;48.588;10.836;2022-07-24T11:27:06;97109.66;;;31.33;31.52
56142;BME280;42018;48.588;10.836;2022-07-24T11:29:52;97109.66;;;31.04;31.15
56142;BME280;42018;48.588;10.836;2022-07-24T11:32:42;97111.22;;;30.94;32.01
56142;BME280;42018;48.588;10.836;2022-07-24T11:35:29;97110.38;;;31.72;31.53
56142;BME280;42018;48.588;10.836;2022-07-24T11:38:15;97106.81;;;31.83;31.35
56142;BME280;42018;48.588;10.836;2022-07-24T11:41:05;97095.28;;;32.41;29.52
56142;BME280;42018;48.588;10.836;2022-07-24T11:43:52;97095.44;;;32.76;28.90
56142;BME280;42018;48.588;10.836;2022-07-24T11:46:39;97093.44;;;32.80;29.39
56142;BME280;42018;48.588;10.836;2022-07-24T11:49:25;97096.69;;;32.64;29.79
56142;BME280;42018;48.588;10.836;2022-07-24T11:55:12;97089.50;;;33.74;27.91
56142;BME280;42018;48.588;10.836;2022-07-24T11:57:57;97072.19;;;33.77;27.45
56142;BME280;42018;48.588;10.836;2022-07-24T12:00:43;97078.72;;;33.56;27.57
56142;BME280;42018;48.588;10.836;2022-07-24T12:03:28;97077.88;;;33.94;26.51
56142;BME280;42018;48.588;10.836;2022-07-24T12:06:14;97074.88;;;33.43;26.46
56142;BME280;42018;48.588;10.836;2022-07-24T12:09:07;97069.81;;;33.42;26.94
56142;BME280;42018;48.588;10.836;2022-07-24T12:11:53;97060.06;;;33.33;27.40
56142;BME280;42018;48.588;10.836;2022-07-24T12:14:38;97061.47;;;33.11;26.64
56142;BME280;42018;48.588;10.836;2022-07-24T12:17:23;97052.47;;;33.52;26.31
56142;BME280;42018;48.588;10.836;2022-07-24T12:20:09;97049.41;;;34.11;26.87
56142;BME280;42018;48.588;10.836;2022-07-24T12:22:55;97046.97;;;34.17;26.81
56142;BME280;42018;48.588;10.836;2022-07-24T12:25:43;97049.66;;;33.90;25.99
56142;BME280;42018;48.588;10.836;2022-07-24T12:28:29;97043.72;;;33.60;27.04
56142;BME280;42018;48.588;10.836;2022-07-24T12:31:14;97036.44;;;34.12;26.85
56142;BME280;42018;48.588;10.836;2022-07-24T12:34:00;97035.19;;;33.85;26.26
56142;BME280;42018;48.588;10.836;2022-07-24T12:36:45;97032.38;;;34.50;26.62
56142;BME280;42018;48.588;10.836;2022-07-24T12:39:30;97030.28;;;34.31;25.72
56142;BME280;42018;48.588;10.836;2022-07-24T12:42:17;97026.16;;;34.43;26.07
56142;BME280;42018;48.588;10.836;2022-07-24T12:45:07;97028.63;;;34.64;25.67
56142;BME280;42018;48.588;10.836;2022-07-24T12:51:06;97024.41;;;35.07;25.65
56142;BME280;42018;48.588;10.836;2022-07-24T12:53:55;97032.81;;;34.18;26.40
56142;BME280;42018;48.588;10.836;2022-07-24T12:56:41;97019.50;;;33.52;26.82
56142;BME280;42018;48.588;10.836;2022-07-24T12:59:31;97029.75;;;32.54;28.63
56142;BME280;42018;48.588;10.836;2022-07-24T13:02:18;97023.66;;;32.22;28.44
56142;BME280;42018;48.588;10.836;2022-07-24T13:05:03;97014.00;;;32.62;28.20
56142;BME280;42018;48.588;10.836;2022-07-24T13:07:51;97012.59;;;32.92;27.66
56142;BME280;42018;48.588;10.836;2022-07-24T13:10:37;97010.91;;;33.05;27.30
56142;BME280;42018;48.588;10.836;2022-07-24T13:13:22;97003.53;;;32.50;27.87
56142;BME280;42018;48.588;10.836;2022-07-24T13:16:07;97001.63;;;32.92;27.99
56142;BME280;42018;48.588;10.836;2022-07-24T13:18:53;97006.78;;;33.27;28.04
56142;BME280;42018;48.588;10.836;2022-07-24T13:21:39;97000.59;;;32.75;27.56
56142;BME280;42018;48.588;10.836;2022-07-24T13:24:25;97000.56;;;32.78;27.32
56142;BME280;42018;48.588;10.836;2022-07-24T13:27:12;97002.44;;;32.33;28.61
56142;BME280;42018;48.588;10.836;2022-07-24T13:30:02;96998.75;;;31.91;28.31
56142;BME280;42018;48.588;10.836;2022-07-24T13:32:48;96993.44;;;32.84;27.73
56142;BME280;42018;48.588;10.836;2022-07-24T13:35:35;96986.75;;;33.65;27.07
56142;BME280;42018;48.588;10.836;2022-07-24T13:38:20;96988.50;;;33.51;26.94
56142;BME280;42018;48.588;10.836;2022-07-24T13:41:06;96979.56;;;33.74;25.80
56142;BME280;42018;48.588;10.836;2022-07-24T13:43:51;96986.81;;;33.92;25.80
56142;BME280;42018;48.588;10.836;2022-07-24T13:46:36;96977.53;;;34.36;25.09
56142;BME280;42018;48.588;10.836;2022-07-24T13:49:22;96970.22;;;34.53;24.94
56142;BME280;42018;48.588;10.836;2022-07-24T13:52:07;96966.47;;;34.90;24.69
56142;BME280;42018;48.588;10.836;2022-07-24T13:54:53;96968.59;;;35.02;23.36
56142;BME280;42018;48.588;10.836;2022-07-24T13:57:38;96957.97;;;35.05;24.24
56142;BME280;42018;48.588;10.836;2022-07-24T14:00:24;96956.41;;;34.29;22.84
56142;BME280;42018;48.588;10.836;2022-07-24T14:03:09;96958.63;;;34.65;23.29
56142;BME280;42018;48.588;10.836;2022-07-24T14:05:55;96955.63;;;34.79;22.76
56142;BME280;42018;48.588;10.836;2022-07-24T14:08:41;96942.59;;;34.60;23.33
56142;BME280;42018;48.588;10.836;2022-07-24T14:11:27;96943.59;;;34.70;23.25
56142;BME280;42018;48.588;10.836;2022-07-24T14:14:15;96945.94;;;34.71;24.27
56142;BME280;42018;48.588;10.836;2022-07-24T14:17:00;96939.66;;;34.44;23.83
56142;BME280;42018;48.588;10.836;2022-07-24T14:19:46;96939.22;;;34.49;23.83
56142;BME280;42018;48.588;10.836;2022-07-24T14:22:31;96941.94;;;34.25;24.26
56142;BME280;42018;48.588;10.836;2022-07-24T14:25:17;96930.03;;;33.47;24.12
56142;BME280;42018;48.588;10.836;2022-07-24T14:28:02;96922.81;;;33.60;24.23
56142;BME280;42018;48.588;10.836;2022-07-24T14:30:48;96931.34;;;33.97;24.59
56142;BME280;42018;48.588;10.836;2022-07-24T14:33:33;96928.56;;;34.00;23.99
56142;BME280;42018;48.588;10.836;2022-07-24T14:36:19;96922.47;;;33.85;23.81
56142;BME280;42018;48.588;10.836;2022-07-24T14:39:04;96927.63;;;33.83;24.10
56142;BME280;42018;48.588;10.836;2022-07-24T14:41:50;96919.53;;;34.00;23.76
56142;BME280;42018;48.588;10.836;2022-07-24T14:44:35;96915.19;;;34.26;23.50
56142;BME280;42018;48.588;10.836;2022-07-24T14:47:21;96912.13;;;33.35;24.37
56142;BME280;42018;48.588;10.836;2022-07-24T14:50:11;96909.41;;;32.98;23.65
56142;BME280;42018;48.588;10.836;2022-07-24T14:52:56;96908.47;;;33.46;24.88